Time;durP1;ratioP1;P1;durP2;ratioP2;P2;SDS_P1;SDS_P2;PMS_P1;PMS_P2;Temp;Humidity;BMP_temperature;BMP_pressure;BME280_temperature;BME280_humidity;BME280_pressure;Samples;Min_cycle;Max_cycle;Signal;HPM_P1;HPM_P2
2022/08/18 00:01:17;;;;;;;10.48;7.72;;;;;;;21.79;70.86;96507.06;4987689;28;20054;-63
2022/08/18 00:03:45;;;;;;;7.32;6.53;;;;;;;21.74;71.27;96509.63;4987387;28;20077;-63
2022/08/18 00:06:28;;;;;;;13.80;7.10;;;;;;;21.59;70.68;96466.28;4987648;28;20054;-63
2022/08/18 00:09:00;;;;;;;7.13;6.43;;;;;;;22.28;70.19;96572.97;4988054;28;20468;-62
2022/08/18 00:11:29;;;;;;;8.88;7.45;;;;;;;22.28;70.88;96567.31;4987457;28;20050;-62
2022/08/18 00:14:12;;;;;;;10.90;7.15;;;;;;;22.18;70.80;96562.84;4986249;28;20058;-55
2022/08/18 00:16:48;;;;;;;10.23;7.50;;;;;;;22.21;71.02;96550.63;4987267;28;20074;-62
2022/08/18 00:19:15;;;;;;;8.75;7.30;;;;;;;22.21;70.64;96561.94;4985835;28;20058;-62
2022/08/18 00:21:41;;;;;;;7.50;6.80;;;;;;;22.17;70.75;96571.78;4987046;28;20433;-63
2022/08/18 00:24:08;;;;;;;11.32;7.63;;;;;;;21.62;70.94;96499.97;4987403;28;20058;-55
2022/08/18 00:26:35;;;;;;;7.93;6.82;;;;;;;21.99;70.86;96544.19;4996401;28;20083;-57
2022/08/18 00:29:03;;;;;;;14.45;7.40;;;;;;;21.84;70.71;96520.56;4987038;28;20557;-63
2022/08/18 00:31:30;;;;;;;11.35;8.27;;;;;;;22.14;71.22;96573.50;4987107;28;20441;-62
2022/08/18 00:33:57;;;;;;;11.27;7.13;;;;;;;22.07;70.56;96550.34;4986903;28;20088;-55
2022/08/18 00:36:24;;;;;;;10.73;7.68;;;;;;;22.19;70.62;96569.28;4985718;28;20057;-63
2022/08/18 00:38:52;;;;;;;9.40;7.15;;;;;;;22.17;70.58;96572.56;4985560;28;20085;-62
2022/08/18 00:41:19;;;;;;;11.15;7.55;;;;;;;22.13;70.57;96571.88;4986764;28;20077;-55
2022/08/18 00:43:48;;;;;;;16.88;8.18;;;;;;;21.55;73.55;96581.97;5001647;28;20051;-62
2022/08/18 00:46:22;;;;;;;19.35;10.18;;;;;;;21.49;73.43;96544.31;4987508;28;20062;-55
2022/08/18 00:48:49;;;;;;;12.13;8.52;;;;;;;21.78;72.59;96567.50;4986839;28;20054;-54
2022/08/18 00:51:23;;;;;;;9.70;7.80;;;;;;;21.96;71.00;96576.13;4986517;28;20046;-54
2022/08/18 00:53:59;;;;;;;13.32;8.35;;;;;;;21.97;72.01;96580.53;4986944;28;20464;-62
2022/08/18 00:56:34;;;;;;;14.82;9.52;;;;;;;21.75;71.76;96534.56;4985064;28;20061;-56
2022/08/18 00:59:08;;;;;;;15.65;9.10;;;;;;;21.92;71.89;96555.75;4986263;28;20055;-55
2022/08/18 01:01:36;;;;;;;11.45;7.85;;;;;;;21.79;70.69;96529.59;4986178;28;20061;-54
2022/08/18 01:04:14;;;;;;;11.95;7.75;;;;;;;22.08;71.24;96571.69;4986198;28;20046;-63
2022/08/18 01:06:50;;;;;;;8.07;7.25;;;;;;;22.10;69.95;96578.44;4986252;28;20107;-57
2022/08/18 01:09:17;;;;;;;12.02;7.78;;;;;;;22.13;70.17;96577.53;4986307;28;20070;-63
2022/08/18 01:11:45;;;;;;;9.65;7.75;;;;;;;21.62;70.68;96502.78;4986212;28;20081;-62
2022/08/18 01:14:14;;;;;;;12.70;7.57;;;;;;;21.84;70.74;96537.50;4984971;28;20830;-63
2022/08/18 01:22:18;;;;;;;8.77;7.70;;;;;;;22.00;71.05;96579.59;4986233;28;20105;-55
2022/08/18 01:27:30;;;;;;;8.45;7.30;;;;;;;21.91;71.11;96587.19;4986379;28;20065;-62
2022/08/18 01:30:08;;;;;;;8.32;7.43;;;;;;;21.84;71.17;96571.34;4984468;28;20137;-57
2022/08/18 01:32:37;;;;;;;8.27;7.25;;;;;;;21.92;70.98;96567.03;4984169;28;20373;-55
2022/08/18 01:35:07;;;;;;;9.77;7.28;;;;;;;21.53;70.80;96513.97;4985797;28;20488;-55
2022/08/18 01:37:35;;;;;;;7.93;6.97;;;;;;;21.76;71.36;96586.91;4986067;28;20058;-55
2022/08/18 01:40:06;;;;;;;8.57;7.00;;;;;;;21.87;71.05;96564.78;4985699;28;20074;-63
2022/08/18 01:42:55;;;;;;;9.13;7.28;;;;;;;22.01;70.31;96575.56;4985775;28;20054;-57
2022/08/18 01:45:22;;;;;;;8.77;7.65;;;;;;;21.92;71.08;96572.66;4986157;28;20138;-57
2022/08/18 01:47:49;;;;;;;9.25;8.35;;;;;;;21.51;70.87;96508.03;4985597;28;20066;-63
2022/08/18 01:50:16;;;;;;;9.60;7.65;;;;;;;21.67;70.85;96529.63;4985970;28;20133;-62
2022/08/18 01:52:44;;;;;;;12.90;8.23;;;;;;;21.95;71.13;96560.47;4985414;28;20050;-61
2022/08/18 01:55:10;;;;;;;8.30;7.43;;;;;;;21.62;70.41;96502.78;4985625;28;20061;-57
2022/08/18 01:57:43;;;;;;;12.27;8.02;;;;;;;21.96;70.78;96562.03;4985392;28;20057;-55
2022/08/18 02:00:13;;;;;;;12.80;7.97;;;;;;;21.99;70.47;96569.56;4985629;28;20168;-56
2022/08/18 02:02:41;;;;;;;12.50;7.45;;;;;;;21.57;74.52;96573.03;4985586;28;20528;-55
2022/08/18 02:05:17;;;;;;;51.42;15.10;;;;;;;21.27;76.12;96560.34;4985748;28;20053;-63
2022/08/18 02:07:44;;;;;;;34.08;12.65;;;;;;;21.35;75.85;96567.34;4984177;28;20069;-63
2022/08/18 02:10:11;;;;;;;22.40;9.70;;;;;;;20.90;75.73;96493.53;4985400;28;20057;-63
2022/08/18 02:12:42;;;;;;;22.42;9.50;;;;;;;21.09;75.35;96517.88;4985184;28;20533;-62
2022/08/18 02:15:10;;;;;;;31.95;14.23;;;;;;;21.19;76.53;96563.84;4985668;28;20054;-63
2022/08/18 02:17:40;;;;;;;27.88;12.45;;;;;;;21.26;76.96;96570.03;4985215;28;20073;-63
2022/08/18 02:20:09;;;;;;;14.88;8.98;;;;;;;21.17;77.76;96569.94;4985347;28;20050;-63
2022/08/18 02:22:36;;;;;;;19.60;9.45;;;;;;;21.19;77.78;96572.28;4985292;28;20465;-55
2022/08/18 02:25:04;;;;;;;13.23;8.90;;;;;;;21.25;76.40;96574.09;4985973;28;20054;-58
2022/08/18 02:27:33;;;;;;;10.90;7.88;;;;;;;21.19;76.58;96570.28;5004828;28;20580;-62
2022/08/18 02:30:02;;;;;;;19.27;11.15;;;;;;;20.46;80.82;96562.06;5005031;28;20057;-62
2022/08/18 02:32:31;;;;;;;19.60;10.63;;;;;;;20.73;80.81;96577.31;5004442;28;20046;-56
2022/08/18 02:34:58;;;;;;;11.65;9.02;;;;;;;20.77;78.76;96577.22;5004618;28;20472;-56
2022/08/18 02:37:24;;;;;;;12.30;9.25;;;;;;;20.81;78.50;96573.06;5004667;28;20063;-58
2022/08/18 02:39:51;;;;;;;11.68;8.07;;;;;;;21.01;77.52;96574.91;5005020;28;20062;-55
2022/08/18 02:42:18;;;;;;;9.40;8.38;;;;;;;20.95;76.90;96557.72;5004480;28;20050;-62
2022/08/18 02:44:44;;;;;;;9.65;8.38;;;;;;;21.11;76.79;96580.19;5008073;28;20057;-55
2022/08/18 02:47:11;;;;;;;12.10;8.00;;;;;;;21.12;76.26;96564.09;5008693;28;20504;-57
2022/08/18 02:49:38;;;;;;;17.42;10.45;;;;;;;20.94;77.17;96547.72;5008783;28;20065;-63
2022/08/18 02:52:05;;;;;;;16.80;11.57;;;;;;;21.06;77.92;96571.50;5007182;28;20054;-58
2022/08/18 02:54:32;;;;;;;15.00;10.57;;;;;;;20.65;77.45;96507.59;5008892;28;20050;-62
2022/08/18 02:56:58;;;;;;;13.50;10.30;;;;;;;21.07;77.58;96567.47;5008256;28;20062;-55
2022/08/18 02:59:26;;;;;;;25.38;14.38;;;;;;;21.14;77.54;96568.00;5008290;28;20056;-62
2022/08/18 03:01:57;;;;;;;14.52;10.63;;;;;;;21.01;78.29;96575.66;5008516;28;20619;-62
2022/08/18 03:04:27;;;;;;;12.13;9.73;;;;;;;20.80;78.15;96537.66;5008155;28;20073;-63
2022/08/18 03:06:58;;;;;;;11.80;8.98;;;;;;;20.95;78.33;96572.59;5007914;28;20132;-56
2022/08/18 03:09:26;;;;;;;12.50;8.43;;;;;;;21.00;77.26;96568.47;5008359;28;20159;-63
2022/08/18 03:11:53;;;;;;;8.82;7.93;;;;;;;21.06;76.53;96577.94;5008408;28;20053;-63
2022/08/18 03:14:20;;;;;;;9.35;8.10;;;;;;;21.10;75.83;96575.81;5008004;28;20417;-63
2022/08/18 03:16:48;;;;;;;10.80;8.85;;;;;;;21.11;76.58;96574.56;5008424;28;20104;-55
2022/08/18 03:19:24;;;;;;;;;;;;;;;20.99;76.65;96578.16;5008299;28;20061;-55
2022/08/18 03:21:52;;;;;;;12.50;9.20;;;;;;;20.81;77.11;96566.63;5008042;28;19929;-62
2022/08/18 03:24:19;;;;;;;11.85;10.02;;;;;;;20.98;76.83;96576.56;5006623;28;20046;-56
2022/08/18 03:26:50;;;;;;;11.45;8.88;;;;;;;20.70;77.56;96538.00;4993225;28;20058;-57
2022/08/18 03:29:17;;;;;;;17.90;10.52;;;;;;;20.85;77.84;96567.28;4988437;28;20058;-60
2022/08/18 03:31:44;;;;;;;14.52;9.38;;;;;;;20.70;79.09;96578.22;4988169;28;20133;-55
2022/08/18 03:34:11;;;;;;;15.75;10.15;;;;;;;20.60;80.18;96592.59;4988123;28;20046;-56
2022/08/18 03:36:38;;;;;;;14.70;10.27;;;;;;;20.63;79.66;96591.69;4987998;28;20054;-62
2022/08/18 03:39:08;;;;;;;12.55;10.68;;;;;;;20.59;79.48;96588.19;4988201;28;20046;-55
2022/08/18 03:41:38;;;;;;;17.20;11.05;;;;;;;20.60;79.33;96590.56;4988208;28;20050;-57
2022/08/18 03:44:25;;;;;;;12.38;10.70;;;;;;;20.61;79.54;96585.75;4988334;28;20445;-61
2022/08/18 03:46:51;;;;;;;11.73;10.02;;;;;;;20.20;82.84;96606.19;4986330;28;20057;-56
2022/08/18 03:49:19;;;;;;;18.30;10.90;;;;;;;20.28;82.94;96589.94;4987414;28;20054;-55
2022/08/18 03:51:47;;;;;;;14.38;10.75;;;;;;;19.96;82.41;96534.53;4987085;28;20054;-65
2022/08/18 03:54:16;;;;;;;13.60;10.70;;;;;;;20.15;82.16;96552.50;4985755;28;20089;-55
2022/08/18 03:56:45;;;;;;;14.13;10.45;;;;;;;20.41;80.72;96566.22;4986803;28;20055;-59
2022/08/18 03:59:22;;;;;;;15.65;11.88;;;;;;;20.20;82.86;96594.94;4987363;28;20050;-55
2022/08/18 04:01:51;;;;;;;18.88;11.75;;;;;;;20.34;82.48;96577.69;4987485;28;20069;-58
2022/08/18 04:04:24;;;;;;;19.42;11.05;;;;;;;20.67;80.54;96589.56;4987326;28;20077;-62
2022/08/18 04:07:04;;;;;;;14.88;9.60;;;;;;;20.68;79.95;96591.13;4987514;28;20058;-58
2022/08/18 04:09:32;;;;;;;10.25;8.65;;;;;;;20.81;78.44;96600.41;4986288;28;20050;-57
2022/08/18 04:12:11;;;;;;;9.30;8.20;;;;;;;20.72;78.58;96586.22;4987296;28;20055;-55
2022/08/18 04:14:46;;;;;;;11.50;8.57;;;;;;;20.86;78.73;96606.28;4987427;28;20104;-63
2022/08/18 04:17:13;;;;;;;9.27;8.38;;;;;;;20.95;78.82;96606.41;4985947;28;20505;-56
2022/08/18 04:19:41;;;;;;;11.15;9.15;;;;;;;21.01;77.82;96603.84;4985657;28;20054;-63
2022/08/18 04:22:08;;;;;;;12.02;9.13;;;;;;;20.89;76.92;96580.03;4987593;28;20050;-55
2022/08/18 04:24:43;;;;;;;13.73;8.68;;;;;;;21.05;77.96;96621.44;4987580;28;20050;-55
2022/08/18 04:27:11;;;;;;;9.27;8.38;;;;;;;21.04;78.01;96608.56;5004548;28;20057;-63
2022/08/18 04:29:38;;;;;;;10.40;8.23;;;;;;;21.20;77.28;96616.91;5006892;28;20057;-55
2022/08/18 04:32:05;;;;;;;17.55;8.85;;;;;;;21.35;76.13;96601.16;5006517;28;20057;-63
2022/08/18 04:34:32;;;;;;;12.27;8.68;;;;;;;21.37;76.30;96598.66;5006519;28;20053;-62
2022/08/18 04:37:01;;;;;;;9.77;8.45;;;;;;;21.46;75.88;96612.06;5006597;28;20058;-62
2022/08/18 04:39:28;;;;;;;10.07;7.85;;;;;;;21.31;75.52;96580.72;5005096;28;20056;-62
2022/08/18 04:41:55;;;;;;;11.02;7.82;;;;;;;21.65;75.91;96597.75;5006499;28;20152;-55
2022/08/18 04:44:22;;;;;;;13.55;7.93;;;;;;;21.67;75.23;96603.69;5006694;28;20058;-59
2022/08/18 04:46:51;;;;;;;9.93;7.80;;;;;;;21.53;73.94;96544.97;5006229;28;20058;-55
2022/08/18 04:49:22;;;;;;;11.10;8.50;;;;;;;21.88;74.04;96600.19;5006467;28;20060;-55
2022/08/18 04:54:56;;;;;;;13.05;8.40;;;;;;;22.33;73.29;96634.47;5006513;28;20057;-57
2022/08/18 04:57:22;;;;;;;13.07;9.00;;;;;;;22.40;73.47;96625.75;5005957;28;20064;-55
2022/08/18 04:59:51;;;;;;;12.32;8.38;;;;;;;22.40;73.39;96608.00;5006156;28;20501;-56
2022/08/18 05:02:20;;;;;;;12.25;9.50;;;;;;;22.60;72.92;96619.03;5006008;28;20056;-55
2022/08/18 05:04:46;;;;;;;11.95;8.63;;;;;;;22.93;71.19;96623.00;5006040;28;20493;-62
2022/08/18 05:07:18;;;;;;;10.13;9.07;;;;;;;23.03;69.88;96616.16;5005987;28;20046;-57
2022/08/18 05:09:46;;;;;;;10.20;8.70;;;;;;;23.27;70.00;96620.06;5005093;28;20444;-55
2022/08/18 05:12:14;;;;;;;10.95;8.63;;;;;;;23.44;68.39;96613.72;5005636;28;20053;-59
2022/08/18 05:14:43;;;;;;;9.32;8.43;;;;;;;23.44;67.89;96629.91;5005731;28;20053;-63
2022/08/18 05:17:11;;;;;;;13.95;9.00;;;;;;;23.70;68.49;96614.28;5005875;28;20058;-63
2022/08/18 05:19:38;;;;;;;11.05;8.77;;;;;;;23.82;67.51;96636.00;5005647;28;20049;-57
2022/08/18 05:22:12;;;;;;;10.32;7.90;;;;;;;23.82;68.30;96616.22;5005984;28;20129;-56
2022/08/18 05:24:39;;;;;;;13.68;8.55;;;;;;;24.19;67.94;96634.84;5006269;28;20072;-55
2022/08/18 05:27:06;;;;;;;11.57;8.05;;;;;;;24.37;66.77;96622.75;4989321;28;20426;-63
2022/08/18 05:29:36;;;;;;;10.13;8.80;;;;;;;24.46;66.32;96626.38;4986319;28;20054;-62
2022/08/18 05:32:13;;;;;;;11.25;8.55;;;;;;;24.65;64.93;96639.28;4985754;28;20054;-59
2022/08/18 05:35:14;;;;;;;14.10;9.10;;;;;;;24.76;64.25;96604.81;4984805;28;20322;-57
2022/08/18 05:38:01;;;;;;;14.27;9.57;;;;;;;25.10;63.41;96636.41;4985701;28;20058;-63
2022/08/18 05:40:28;;;;;;;14.77;8.32;;;;;;;25.31;63.40;96629.75;4985671;28;20477;-63
2022/08/18 05:42:57;;;;;;;13.65;8.10;;;;;;;25.49;61.88;96625.28;4978826;28;20852;-63
2022/08/18 05:45:25;;;;;;;8.90;7.70;;;;;;;25.49;59.70;96565.72;4985350;28;20046;-56
2022/08/18 05:47:58;;;;;;;10.95;7.65;;;;;;;25.97;59.61;96618.44;4985673;28;20114;-56
2022/08/18 05:50:27;;;;;;;11.85;7.22;;;;;;;25.97;59.99;96612.75;4986047;28;20073;-56
2022/08/18 05:52:58;;;;;;;9.48;8.13;;;;;;;26.18;58.98;96631.56;4985187;28;20053;-62
2022/08/18 05:58:20;;;;;;;7.72;6.68;;;;;;;26.47;57.42;96628.84;4991649;28;21044;-62
2022/08/18 06:00:53;;;;;;;9.02;6.82;;;;;;;26.60;56.78;96626.53;5004252;28;20133;-62
2022/08/18 06:03:42;;;;;;;9.65;7.90;;;;;;;26.83;56.69;96617.19;5004323;28;20054;-63
2022/08/18 06:06:17;;;;;;;10.15;6.53;;;;;;;26.89;56.11;96609.53;5004543;28;20057;-62
2022/08/18 06:09:09;;;;;;;9.88;6.93;;;;;;;27.27;54.76;96629.41;5004524;28;20053;-58
2022/08/18 06:11:36;;;;;;;10.20;7.20;;;;;;;27.43;53.98;96628.91;5004274;28;20050;-62
2022/08/18 06:14:03;;;;;;;9.52;7.00;;;;;;;27.76;53.89;96625.81;5001646;28;20077;-75
2022/08/18 06:16:30;;;;;;;7.35;6.65;;;;;;;27.99;50.50;96628.56;4984971;28;20066;-58
2022/08/18 06:19:29;;;;;;;7.18;6.57;;;;;;;28.20;49.53;96622.88;4984155;28;20062;-56
2022/08/18 06:22:15;;;;;;;7.07;6.38;;;;;;;28.44;49.21;96623.47;4984855;28;20058;-64
2022/08/18 06:25:09;;;;;;;7.60;6.85;;;;;;;28.65;47.96;96622.19;5001959;28;20057;-66
2022/08/18 06:27:49;;;;;;;7.65;6.80;;;;;;;28.83;47.96;96627.59;4998829;28;20057;-66
2022/08/18 06:30:26;;;;;;;8.10;6.75;;;;;;;29.02;47.43;96628.84;4986318;28;20493;-62
2022/08/18 06:32:52;;;;;;;8.27;7.47;;;;;;;29.22;47.11;96621.03;4985817;28;20041;-66
2022/08/18 06:35:47;;;;;;;7.38;6.68;;;;;;;29.48;47.05;96623.88;4985273;28;20046;-55
2022/08/18 06:41:08;;;;;;;7.60;6.80;;;;;;;29.52;44.17;96615.84;4996708;28;20061;-65
2022/08/18 06:44:08;;;;;;;10.25;7.10;;;;;;;29.69;45.17;96602.50;4990912;28;20570;-66
2022/08/18 06:46:42;;;;;;;8.65;6.50;;;;;;;29.74;43.75;96627.47;4985131;28;20046;-54
2022/08/18 06:49:16;;;;;;;7.88;6.55;;;;;;;29.39;42.44;96566.94;4987996;28;20054;-66
2022/08/18 06:51:43;;;;;;;7.82;6.85;;;;;;;29.48;42.88;96569.63;4999430;28;20052;-57
2022/08/18 06:54:18;;;;;;;10.15;6.63;;;;;;;29.99;43.67;96615.19;4985502;28;20140;-57
2022/08/18 06:56:48;;;;;;;6.72;6.22;;;;;;;30.24;42.84;96608.59;4984935;28;20430;-60
2022/08/18 06:59:36;;;;;;;6.93;6.32;;;;;;;30.36;42.02;96609.47;4984782;28;20054;-57
2022/08/18 07:02:37;;;;;;;13.35;6.63;;;;;;;30.51;40.87;96604.31;4984191;28;20058;-57
2022/08/18 07:05:19;;;;;;;6.75;6.15;;;;;;;30.65;40.35;96597.63;4984706;28;20065;-59
2022/08/18 07:08:00;;;;;;;7.50;6.57;;;;;;;30.76;40.21;96592.75;4982998;28;20054;-70
2022/08/18 07:10:36;;;;;;;11.93;6.97;;;;;;;30.83;40.74;96592.25;4984158;28;20535;-75
2022/08/18 07:13:27;;;;;;;7.10;6.30;;;;;;;30.78;39.61;96595.88;5002420;28;20123;-57
2022/08/18 07:16:21;;;;;;;7.43;6.73;;;;;;;30.92;39.62;96594.88;4985512;28;20050;-57
2022/08/18 07:19:11;;;;;;;7.90;7.20;;;;;;;31.07;39.88;96593.88;4983032;28;20065;-58
2022/08/18 07:21:41;;;;;;;7.63;6.93;;;;;;;31.13;39.76;96597.50;4988428;28;20058;-68
2022/08/18 07:24:20;;;;;;;7.88;5.97;;;;;;;31.24;38.71;96603.25;4984981;28;20460;-59
2022/08/18 07:27:03;;;;;;;7.03;6.43;;;;;;;31.21;38.70;96601.44;4993055;28;20896;-59
2022/08/18 07:29:34;;;;;;;7.03;6.43;;;;;;;31.42;38.35;96597.06;4991971;28;20062;-58
2022/08/18 07:32:11;;;;;;;8.25;6.60;;;;;;;31.65;38.62;96601.47;4987578;28;20069;-67
2022/08/18 07:34:52;;;;;;;6.93;6.28;;;;;;;31.49;37.52;96550.75;4990556;28;20057;-57
2022/08/18 07:37:31;;;;;;;7.50;6.35;;;;;;;31.77;37.41;96594.47;4987098;28;20058;-59
2022/08/18 07:40:04;;;;;;;7.25;6.55;;;;;;;31.97;37.18;96588.47;4999647;28;20053;-63
2022/08/18 07:42:57;;;;;;;6.90;6.30;;;;;;;32.06;36.18;96596.78;4979531;28;20053;-57
2022/08/18 07:45:36;;;;;;;6.95;6.25;;;;;;;32.14;36.47;96594.94;4986796;28;20066;-58
2022/08/18 07:48:24;;;;;;;8.93;8.10;;;;;;;32.00;35.86;96558.75;4992797;28;20054;-58
2022/08/18 07:51:23;;;;;;;9.60;6.35;;;;;;;31.88;35.47;96588.75;4986961;28;20053;-64
2022/08/18 07:54:03;;;;;;;7.10;6.40;;;;;;;31.39;35.76;96593.16;4989714;28;20050;-57
2022/08/18 07:56:42;;;;;;;9.00;6.85;;;;;;;31.45;36.51;96590.28;4992155;28;20054;-57
2022/08/18 07:59:12;;;;;;;7.20;6.60;;;;;;;31.84;35.72;96593.94;5001155;28;20054;-69
2022/08/18 08:02:16;;;;;;;7.25;6.03;;;;;;;32.18;35.29;96584.00;5001868;28;20053;-64
2022/08/18 08:04:55;;;;;;;10.90;6.68;;;;;;;32.47;34.34;96586.25;5001045;28;20058;-58
2022/08/18 08:07:44;;;;;;;6.95;6.35;;;;;;;31.99;34.10;96497.00;4989623;28;20596;-66
2022/08/18 08:10:32;;;;;;;10.30;7.15;;;;;;;32.66;34.44;96600.81;4991478;28;20058;-63
2022/08/18 08:13:18;;;;;;;9.23;6.80;;;;;;;32.69;34.82;96594.78;4985655;28;20061;-58
2022/08/18 08:16:34;;;;;;;10.88;6.68;;;;;;;32.49;34.53;96575.03;4996988;28;20107;-58
2022/08/18 08:19:30;;;;;;;6.35;5.85;;;;;;;32.60;33.82;96575.00;5000879;28;20468;-56
2022/08/18 08:22:30;;;;;;;7.75;6.28;;;;;;;32.22;33.96;96555.81;5004082;28;20092;-65
2022/08/18 08:25:22;;;;;;;8.48;6.40;;;;;;;32.42;34.10;96592.81;5004238;28;20073;-61
2022/08/18 08:28:47;;;;;;;7.15;6.45;;;;;;;32.54;34.84;96602.94;4993721;28;20077;-56
2022/08/18 08:31:48;;;;;;;10.93;7.30;;;;;;;32.66;34.81;96592.19;4984947;28;20553;-63
2022/08/18 08:34:21;;;;;;;7.97;6.35;;;;;;;32.73;33.94;96586.69;4986580;28;20050;-56
2022/08/18 08:36:53;;;;;;;7.10;5.82;;;;;;;32.85;34.38;96579.56;4983490;28;20054;-61
2022/08/18 08:39:43;;;;;;;6.40;5.80;;;;;;;33.11;33.92;96585.72;4985657;28;20070;-58
2022/08/18 08:42:14;;;;;;;10.27;8.95;;;;;;;33.37;33.56;96586.03;4983505;28;20108;-63
2022/08/18 08:45:06;;;;;;;9.25;7.93;;;;;;;33.46;33.11;96588.63;4983198;28;20124;-58
2022/08/18 08:47:48;;;;;;;7.43;6.72;;;;;;;33.47;32.83;96590.19;4985682;28;20075;-61
2022/08/18 08:50:20;;;;;;;7.43;6.40;;;;;;;33.38;33.18;96586.84;4986511;28;20056;-59
2022/08/18 08:53:00;;;;;;;7.72;6.97;;;;;;;32.95;33.73;96583.72;4987048;28;20508;-62
2022/08/18 08:55:40;;;;;;;9.93;6.60;;;;;;;32.59;34.34;96573.44;4987489;28;20561;-57
2022/08/18 08:58:07;;;;;;;8.32;7.18;;;;;;;32.57;34.19;96576.06;4985961;28;20056;-58
2022/08/18 09:00:35;;;;;;;8.85;7.72;;;;;;;32.35;34.91;96542.50;4984587;28;20134;-60
2022/08/18 09:03:20;;;;;;;9.02;7.32;;;;;;;32.85;34.24;96579.56;4985676;28;20065;-67
2022/08/18 09:05:59;;;;;;;;;;;;;;;32.43;34.44;96576.38;4988491;28;20437;-57
2022/08/18 09:08:36;;;;;;;9.55;7.22;;;;;;;32.72;33.41;96572.88;4988292;28;19926;-57
2022/08/18 09:11:17;;;;;;;7.75;6.85;;;;;;;32.65;34.20;96577.06;4986313;28;20365;-58
2022/08/18 09:14:13;;;;;;;10.27;7.90;;;;;;;32.47;33.30;96574.03;4985729;28;20072;-63
2022/08/18 09:16:40;;;;;;;7.95;7.22;;;;;;;32.29;34.58;96572.50;4985989;28;20066;-63
2022/08/18 09:19:16;;;;;;;8.00;7.35;;;;;;;32.28;34.86;96576.66;4987130;28;20105;-64
2022/08/18 09:21:50;;;;;;;8.02;6.68;;;;;;;32.34;34.02;96534.41;4996233;28;20512;-62
2022/08/18 09:24:25;;;;;;;9.38;7.53;;;;;;;32.70;33.84;96581.22;5003518;28;20128;-57
2022/08/18 09:27:12;;;;;;;7.72;6.90;;;;;;;32.73;33.13;96575.19;5004829;28;20609;-61
2022/08/18 09:29:48;;;;;;;7.97;7.20;;;;;;;32.99;32.65;96572.72;5005383;28;20065;-59
2022/08/18 09:32:17;;;;;;;7.65;7.13;;;;;;;32.71;32.68;96579.91;5004790;28;20076;-57
2022/08/18 09:34:55;;;;;;;8.75;7.82;;;;;;;32.88;32.77;96569.91;5005122;28;20058;-61
2022/08/18 09:37:27;;;;;;;7.72;6.95;;;;;;;32.79;33.19;96552.19;5003494;28;20101;-57
2022/08/18 09:43:15;;;;;;;6.90;6.30;;;;;;;32.88;32.81;96572.78;5004057;28;19952;-63
2022/08/18 09:45:45;;;;;;;7.03;6.32;;;;;;;32.46;33.90;96581.06;5005002;28;20129;-58
2022/08/18 09:48:13;;;;;;;7.13;6.32;;;;;;;32.72;33.79;96578.59;5004416;28;20415;-62
2022/08/18 09:50:56;;;;;;;9.30;7.07;;;;;;;32.95;33.90;96572.25;5004839;28;20075;-58
2022/08/18 09:54:12;;;;;;;10.45;8.48;;;;;;;33.09;33.79;96573.97;5003636;28;20068;-61
2022/08/18 09:57:15;;;;;;;11.30;7.47;;;;;;;33.23;33.01;96572.84;5002161;28;20455;-61
2022/08/18 09:59:46;;;;;;;15.02;9.63;;;;;;;33.38;33.01;96567.50;5009527;28;20054;-61
2022/08/18 10:02:30;;;;;;;8.32;7.10;;;;;;;33.39;32.40;96560.47;5002076;28;20418;-64
2022/08/18 10:05:19;;;;;;;10.60;8.27;;;;;;;33.83;31.54;96561.41;4990303;28;20515;-59
2022/08/18 10:08:04;;;;;;;7.30;6.70;;;;;;;33.47;32.68;96558.59;4988532;28;20348;-64
2022/08/18 10:10:51;;;;;;;8.45;7.57;;;;;;;34.06;33.11;96554.13;4987749;28;20079;-59
2022/08/18 10:13:37;;;;;;;7.75;6.93;;;;;;;34.34;31.75;96546.75;4999519;28;20528;-58
2022/08/18 10:16:46;;;;;;;17.10;11.43;;;;;;;34.03;32.19;96552.34;4997534;28;20046;-56
2022/08/18 10:19:51;;;;;;;8.15;6.80;;;;;;;34.22;31.39;96556.06;5003329;28;20497;-59
2022/08/18 10:22:42;;;;;;;7.75;6.97;;;;;;;33.78;32.40;96551.53;4990427;28;20049;-59
2022/08/18 10:25:10;;;;;;;9.82;7.57;;;;;;;34.08;32.89;96560.13;5004144;28;20054;-67
2022/08/18 10:27:53;;;;;;;10.85;6.55;;;;;;;34.04;32.55;96539.50;5001026;28;20046;-65
2022/08/18 10:30:35;;;;;;;9.95;7.43;;;;;;;34.40;32.26;96543.84;4995049;28;20488;-65
2022/08/18 10:33:59;;;;;;;8.00;7.35;;;;;;;34.20;31.11;96552.94;4995758;28;20058;-59
2022/08/18 10:36:32;;;;;;;10.88;8.43;;;;;;;34.54;31.89;96548.38;4983020;28;20177;-58
2022/08/18 10:39:05;;;;;;;8.73;7.85;;;;;;;34.82;31.47;96540.13;4984238;28;20058;-65
2022/08/18 10:41:33;;;;;;;;;;;;;;;34.42;31.56;96546.94;4984546;28;20050;-67
2022/08/18 10:44:02;;;;;;;9.25;7.65;;;;;;;34.16;32.07;96552.47;4987907;28;19932;-61
2022/08/18 10:46:50;;;;;;;8.68;7.43;;;;;;;33.73;32.26;96521.50;4984673;28;20488;-58
2022/08/18 10:49:24;;;;;;;10.48;8.25;;;;;;;34.25;31.52;96543.47;5000823;28;20131;-65
2022/08/18 10:52:12;;;;;;;10.70;7.97;;;;;;;34.33;32.17;96538.66;5003017;28;20050;-69
2022/08/18 10:55:04;;;;;;;8.82;7.97;;;;;;;34.10;31.68;96485.63;5001029;28;20050;-57
2022/08/18 10:57:34;;;;;;;8.93;8.07;;;;;;;34.28;31.03;96542.38;5002592;28;20054;-65
2022/08/18 11:00:17;;;;;;;9.38;7.78;;;;;;;33.89;31.67;96542.78;5000968;28;20089;-60
2022/08/18 11:03:02;;;;;;;8.38;7.55;;;;;;;34.25;31.52;96541.38;4996003;28;20062;-69
2022/08/18 11:05:49;;;;;;;11.90;9.02;;;;;;;32.88;31.10;96302.22;4991738;28;20234;-68
2022/08/18 11:08:19;;;;;;;10.05;9.05;;;;;;;34.31;31.31;96524.03;5012584;28;20050;-64
2022/08/18 11:10:49;;;;;;;9.15;7.53;;;;;;;34.75;30.25;96503.31;5004450;28;20591;-61
2022/08/18 11:13:56;;;;;;;9.57;7.88;;;;;;;35.17;30.05;96537.81;4998853;28;20158;-59
2022/08/18 11:16:34;;;;;;;9.85;8.07;;;;;;;35.25;29.99;96531.41;5006121;28;20130;-58
2022/08/18 11:19:17;;;;;;;9.32;8.43;;;;;;;35.10;29.96;96531.91;4988590;28;20541;-57
2022/08/18 11:21:50;;;;;;;9.00;8.02;;;;;;;35.23;30.12;96529.09;4994664;28;20467;-62
2022/08/18 11:24:23;;;;;;;;;;;;;;;35.21;29.63;96525.97;4988651;28;20061;-65
2022/08/18 11:26:52;;;;;;;11.80;7.65;;;;;;;34.91;29.75;96528.25;4999532;28;20300;-61
2022/08/18 11:29:28;;;;;;;10.88;9.77;;;;;;;34.92;30.45;96544.22;4987697;28;20514;-57
2022/08/18 11:31:58;;;;;;;11.68;8.35;;;;;;;35.33;29.99;96538.84;4989241;28;20089;-56
2022/08/18 11:34:36;;;;;;;10.00;8.80;;;;;;;35.58;29.97;96537.44;4991188;28;20053;-62
2022/08/18 11:37:19;;;;;;;9.48;8.57;;;;;;;35.41;29.74;96530.41;5006851;28;20123;-64
2022/08/18 11:39:48;;;;;;;9.15;8.35;;;;;;;35.15;30.37;96533.91;5004223;28;20149;-63
2022/08/18 11:42:17;;;;;;;9.82;8.93;;;;;;;34.47;30.49;96531.72;5003153;28;20049;-63
2022/08/18 11:44:53;;;;;;;9.38;8.57;;;;;;;34.22;31.67;96524.41;4987001;28;20046;-57
2022/08/18 11:47:21;;;;;;;9.18;8.38;;;;;;;34.46;30.89;96539.56;4985919;28;20052;-61
2022/08/18 11:50:11;;;;;;;10.20;9.20;;;;;;;34.38;31.84;96509.06;4986567;28;20112;-58
2022/08/18 11:52:48;;;;;;;12.18;9.60;;;;;;;33.44;32.51;96516.56;4991552;28;20121;-70
2022/08/18 11:55:33;;;;;;;11.90;8.73;;;;;;;33.55;32.71;96522.22;5006117;28;20509;-66
2022/08/18 11:58:01;;;;;;;13.63;9.25;;;;;;;34.18;32.23;96515.28;4996460;28;20046;-64
2022/08/18 12:00:46;;;;;;;12.00;9.35;;;;;;;34.17;31.87;96508.00;5000419;28;20096;-58
2022/08/18 12:03:26;;;;;;;9.27;8.38;;;;;;;34.25;31.39;96508.94;4986934;28;20385;-62
2022/08/18 12:06:09;;;;;;;9.77;8.98;;;;;;;34.27;31.43;96500.56;4995239;28;20050;-66
2022/08/18 12:09:10;;;;;;;10.15;9.05;;;;;;;33.97;32.52;96511.38;4990754;28;20497;-54
2022/08/18 12:11:49;;;;;;;8.73;7.80;;;;;;;34.25;31.87;96503.97;5003757;28;20563;-64
2022/08/18 12:14:22;;;;;;;11.63;8.20;;;;;;;33.64;32.19;96409.78;5006408;28;20046;-60
2022/08/18 12:17:00;;;;;;;11.68;8.75;;;;;;;33.88;32.31;96503.09;4998836;28;20046;-57
2022/08/18 12:19:29;;;;;;;14.20;8.77;;;;;;;33.98;32.14;96489.91;4986900;28;20058;-63
2022/08/18 12:22:00;;;;;;;12.95;7.72;;;;;;;34.02;32.20;96496.16;4996693;28;20066;-58
2022/08/18 12:24:37;;;;;;;13.13;8.35;;;;;;;34.06;32.17;96496.63;4993548;28;20429;-66
2022/08/18 12:27:05;;;;;;;10.50;8.00;;;;;;;33.98;32.45;96492.78;4998182;28;20137;-57
2022/08/18 12:29:48;;;;;;;10.18;9.13;;;;;;;34.27;31.97;96489.06;5004222;28;20061;-57